Capitola, California
Current Conditions -  °F | °C
As of 6:53 PM on Tuesday 25 Nov 2014 (Local Time) from KWVI Reporting Station
Clear Clear  
Wind Chill: 58°   Ceiling: Unl
Heat Index: 58°   Visibility: 10mi
Dew Point: 47°   Wind: 5mph
Humidity: 67%   Direction: 310°NW
Pressure: 30.33"   Gusts: NA
Location:  36.97°N, 121.95°W
Report Text: KWVI 260253Z AUTO 31004KT 10SM CLR 14/08 A3033 RMK AO2 SLP272 T01440083 53001
Loading
Personal Weather Stations






























Interactive Weather Map New forecast layout! Learn more

10-Day Weather Forecast

Advertisements
Track Severe Weather on mobile